Time;durP1;ratioP1;P1;durP2;ratioP2;P2;SDS_P1;SDS_P2;PMS_P1;PMS_P2;Temp;Humidity;BMP_temperature;BMP_pressure;BME280_temperature;BME280_humidity;BME280_pressure;Samples;Min_cycle;Max_cycle;Signal;HPM_P1;HPM_P2
2021/07/28 00:02:18;;;;;;;16.45;13.03;;;;;;;24.72;65.89;99610.70;1571421;90;22287;-69
2021/07/28 00:04:45;;;;;;;28.80;14.43;;;;;;;24.73;68.19;99604.06;1611490;89;21039;-71
2021/07/28 00:07:11;;;;;;;17.77;14.60;;;;;;;24.67;70.52;99604.63;1589943;89;21118;-70
2021/07/28 00:09:38;;;;;;;19.42;14.33;;;;;;;24.56;71.84;99604.29;1600615;89;21058;-70
2021/07/28 00:12:06;;;;;;;19.25;13.60;;;;;;;24.50;72.04;99602.94;1587581;90;21120;-69
2021/07/28 00:14:33;;;;;;;16.10;12.05;;;;;;;24.50;72.18;99598.02;1587352;90;21062;-71
2021/07/28 00:17:00;;;;;;;16.32;12.82;;;;;;;24.49;71.88;99592.28;1587385;90;21096;-70
2021/07/28 00:19:32;;;;;;;13.93;12.13;;;;;;;24.48;71.59;99593.42;1564993;90;21114;-70
2021/07/28 00:24:40;;;;;;;21.75;15.18;;;;;;;24.36;70.38;99607.98;1570493;91;21099;-69
2021/07/28 00:27:07;;;;;;;22.17;14.93;;;;;;;24.28;70.70;99617.93;1576719;91;21927;-70
2021/07/28 00:29:36;;;;;;;21.62;14.87;;;;;;;24.20;71.07;99602.92;1576560;91;20980;-71
2021/07/28 00:32:04;;;;;;;17.42;15.63;;;;;;;24.05;71.51;99604.93;1576559;91;21094;-70
2021/07/28 00:34:30;;;;;;;21.82;12.88;;;;;;;23.91;72.25;99608.00;1576373;90;21118;-70
2021/07/28 00:36:57;;;;;;;20.55;14.70;;;;;;;23.83;72.45;99602.84;1579663;89;21104;-71
2021/07/28 00:39:24;;;;;;;17.23;14.60;;;;;;;23.74;72.57;99592.50;1601572;88;21843;-72
2021/07/28 00:41:50;;;;;;;21.52;15.53;;;;;;;23.66;72.62;99593.97;1561655;90;21018;-69
2021/07/28 00:44:17;;;;;;;18.70;13.22;;;;;;;23.65;72.92;99605.52;1554243;91;21007;-70
2021/07/28 00:46:43;;;;;;;17.52;12.43;;;;;;;23.69;72.61;99605.06;1576492;90;21100;-70
2021/07/28 00:49:10;;;;;;;21.55;14.18;;;;;;;23.73;72.21;99595.60;1576581;91;21031;-70
2021/07/28 00:51:36;;;;;;;25.08;15.45;;;;;;;23.78;71.95;99597.57;1554525;91;21964;-72
2021/07/28 00:54:02;;;;;;;20.43;15.23;;;;;;;23.77;72.38;99595.15;1576351;91;21103;-72
2021/07/28 00:56:29;;;;;;;21.95;14.63;;;;;;;23.72;72.69;99601.66;1554479;90;21028;-72
2021/07/28 00:58:56;;;;;;;25.32;15.98;;;;;;;23.71;72.93;99609.66;1576456;91;21127;-71
2021/07/28 01:01:23;;;;;;;19.87;15.03;;;;;;;23.64;73.64;99606.69;1576562;91;21090;-69
2021/07/28 01:03:50;;;;;;;19.02;16.90;;;;;;;23.57;74.03;99605.05;1554525;91;21128;-70
2021/07/28 01:06:16;;;;;;;20.25;15.20;;;;;;;23.58;73.84;99600.36;1554872;91;21536;-69
2021/07/28 01:08:43;;;;;;;19.20;15.55;;;;;;;23.57;74.10;99610.53;1553844;91;21051;-72
2021/07/28 01:11:09;;;;;;;23.18;15.48;;;;;;;23.47;75.58;99612.33;1575652;89;21061;-71
2021/07/28 01:13:37;;;;;;;19.62;16.10;;;;;;;23.38;75.74;99606.08;1575592;90;21632;-72
2021/07/28 01:16:11;;;;;;;21.42;16.87;;;;;;;23.26;76.51;99608.78;1554123;91;21222;-72
2021/07/28 01:18:37;;;;;;;25.95;16.73;;;;;;;23.23;77.19;99612.98;1575963;91;21564;-71
2021/07/28 01:21:10;;;;;;;23.30;15.58;;;;;;;23.27;76.51;99607.05;1576301;91;21027;-70
2021/07/28 01:23:37;;;;;;;27.55;16.17;;;;;;;23.27;75.48;99611.17;1584001;89;21059;-69
2021/07/28 01:26:05;;;;;;;21.52;15.60;;;;;;;23.35;75.49;99607.57;1587508;90;21098;-69
2021/07/28 01:28:34;;;;;;;20.10;14.87;;;;;;;23.39;75.52;99607.69;1587385;90;21281;-69
2021/07/28 01:31:03;;;;;;;19.62;14.28;;;;;;;23.43;75.58;99605.88;1565126;90;21577;-69
2021/07/28 01:33:35;;;;;;;19.90;16.10;;;;;;;23.48;77.78;99615.31;1561688;90;21563;-70
2021/07/28 01:36:04;;;;;;;19.30;15.00;;;;;;;23.45;77.47;99629.13;1564049;90;21116;-69
2021/07/28 01:38:31;;;;;;;21.00;16.12;;;;;;;23.34;78.11;99627.11;1564765;90;20995;-70
2021/07/28 01:40:59;;;;;;;17.57;15.43;;;;;;;23.19;77.93;99626.34;1564560;90;21398;-68
2021/07/28 01:43:27;;;;;;;22.07;16.42;;;;;;;23.20;77.79;99640.30;1587428;90;21050;-68
2021/07/28 01:45:55;;;;;;;16.48;14.68;;;;;;;23.19;77.94;99643.62;1592844;89;21078;-69
2021/07/28 01:48:22;;;;;;;19.55;13.93;;;;;;;23.21;77.70;99633.69;1613005;89;21027;-69
2021/07/28 01:50:48;;;;;;;18.77;15.32;;;;;;;23.25;77.62;99627.76;1610308;89;21080;-70
2021/07/28 01:53:15;;;;;;;20.35;17.02;;;;;;;23.22;78.15;99615.49;1587407;90;21292;-69
2021/07/28 01:55:42;;;;;;;18.77;15.15;;;;;;;23.21;78.46;99616.66;1587545;89;21586;-69
2021/07/28 01:58:10;;;;;;;19.37;16.85;;;;;;;23.12;79.52;99619.23;1566152;90;21131;-70
2021/07/28 02:00:37;;;;;;;23.85;18.05;;;;;;;23.04;80.72;99605.80;1587433;90;21540;-70
2021/07/28 02:03:04;;;;;;;22.07;18.20;;;;;;;22.92;80.37;99598.31;1564866;91;21088;-69
2021/07/28 02:05:33;;;;;;;21.62;17.48;;;;;;;22.90;80.39;99600.58;1577534;91;21814;-70
2021/07/28 02:08:04;;;;;;;22.80;19.95;;;;;;;22.89;79.06;99594.05;1577511;90;21048;-69
2021/07/28 02:10:38;;;;;;;19.35;16.15;;;;;;;22.90;78.86;99590.17;1577798;90;21569;-69
2021/07/28 02:13:05;;;;;;;33.75;19.00;;;;;;;22.90;78.70;99585.49;1561851;91;21006;-68
2021/07/28 02:15:33;;;;;;;22.32;14.90;;;;;;;22.92;78.66;99591.45;1585352;90;21144;-68
2021/07/28 02:17:59;;;;;;;20.27;14.68;;;;;;;22.92;78.87;99584.60;1564926;90;21105;-68
2021/07/28 02:20:28;;;;;;;20.62;14.63;;;;;;;22.95;78.60;99577.06;1564805;90;21092;-68
2021/07/28 02:22:54;;;;;;;17.87;14.98;;;;;;;22.97;78.30;99566.55;1587688;90;21001;-69
2021/07/28 02:25:21;;;;;;;21.15;16.05;;;;;;;22.98;78.37;99571.46;1589383;89;21014;-71
2021/07/28 02:27:48;;;;;;;17.60;15.20;;;;;;;22.98;78.41;99564.61;1588779;89;21606;-68
2021/07/28 02:30:19;;;;;;;20.65;15.68;;;;;;;22.94;78.56;99564.48;1588758;90;21103;-68
2021/07/28 02:32:46;;;;;;;18.95;16.30;;;;;;;22.90;79.49;99569.03;1596323;89;21020;-69
2021/07/28 02:35:13;;;;;;;17.62;14.55;;;;;;;22.93;79.49;99566.17;1576858;89;21627;-67
2021/07/28 02:37:45;;;;;;;22.65;15.15;;;;;;;22.92;79.63;99568.70;1601407;89;21125;-68
2021/07/28 02:40:15;;;;;;;27.35;15.78;;;;;;;22.95;79.23;99562.55;1600196;88;21654;-67
2021/07/28 02:42:43;;;;;;;21.73;14.33;;;;;;;23.01;78.54;99571.62;1594118;89;21150;-67
2021/07/28 02:45:10;;;;;;;16.37;12.98;;;;;;;23.07;78.12;99561.22;1588843;89;21062;-67
2021/07/28 02:47:37;;;;;;;22.17;16.93;;;;;;;23.17;77.91;99557.27;1588955;90;21103;-68
2021/07/28 02:50:05;;;;;;;19.12;13.78;;;;;;;23.21;78.38;99559.02;1588733;90;21571;-69
2021/07/28 02:52:31;;;;;;;20.00;17.37;;;;;;;23.19;79.97;99555.80;1590724;89;21129;-68
2021/07/28 02:55:04;;;;;;;26.93;18.98;;;;;;;23.07;82.35;99554.36;1589086;89;22841;-68
2021/07/28 02:57:26;;;;;;;34.65;20.08;;;;;;;22.94;82.96;99553.51;1588013;90;21088;-68
2021/07/28 02:59:53;;;;;;;28.75;20.43;;;;;;;22.79;83.65;99572.49;1591353;89;20948;-68
2021/07/28 03:02:19;;;;;;;26.00;18.80;;;;;;;22.68;84.60;99594.58;1589318;89;21082;-69
2021/07/28 03:04:45;;;;;;;19.55;15.48;;;;;;;22.63;84.31;99607.10;1563231;90;21062;-69
2021/07/28 03:07:11;;;;;;;23.45;17.40;;;;;;;22.73;83.52;99619.91;1563585;90;21051;-68
2021/07/28 03:09:38;;;;;;;24.55;16.20;;;;;;;22.75;83.28;99613.50;1589514;89;21611;-69
2021/07/28 03:12:05;;;;;;;21.35;19.17;;;;;;;22.78;83.23;99612.05;1592389;89;21005;-68
2021/07/28 03:14:32;;;;;;;19.70;17.65;;;;;;;22.78;83.38;99619.67;1597720;89;21101;-68
2021/07/28 03:16:58;;;;;;;24.82;18.27;;;;;;;22.72;83.93;99608.69;1593406;89;21047;-68
2021/07/28 03:19:24;;;;;;;33.88;19.42;;;;;;;22.65;84.61;99602.88;1596127;89;21284;-68
2021/07/28 03:21:51;;;;;;;20.17;18.05;;;;;;;22.65;84.56;99600.70;1603943;89;21032;-68
2021/07/28 03:24:18;;;;;;;21.73;16.17;;;;;;;22.77;83.83;99620.03;1612218;88;21064;-66
2021/07/28 03:26:45;;;;;;;18.65;16.52;;;;;;;22.84;83.34;99632.07;1594269;88;21084;-67
2021/07/28 03:29:15;;;;;;;20.37;16.93;;;;;;;22.88;82.64;99654.14;1616018;88;21079;-67
2021/07/28 03:31:42;;;;;;;22.15;17.55;;;;;;;22.90;83.77;99670.52;1602619;88;21154;-68
2021/07/28 03:34:08;;;;;;;22.32;15.60;;;;;;;22.87;83.67;99668.45;1593482;88;21050;-66
2021/07/28 03:36:36;;;;;;;27.60;15.72;;;;;;;22.89;83.24;99674.95;1604992;88;21548;-67
2021/07/28 03:39:03;;;;;;;22.62;15.05;;;;;;;22.95;82.93;99681.30;1608281;88;21565;-68
2021/07/28 03:41:29;;;;;;;20.17;14.95;;;;;;;23.00;82.46;99672.87;1615795;88;21084;-68
2021/07/28 03:43:56;;;;;;;19.92;15.70;;;;;;;23.06;81.40;99673.50;1615944;88;21092;-68
2021/07/28 03:46:23;;;;;;;26.45;18.10;;;;;;;23.14;81.64;99668.51;1615921;88;21000;-68
2021/07/28 03:48:50;;;;;;;20.00;17.35;;;;;;;23.18;81.73;99653.55;1613310;88;21148;-68
2021/07/28 03:51:17;;;;;;;22.32;18.77;;;;;;;23.12;82.51;99659.80;1597686;88;21099;-68
2021/07/28 03:53:45;;;;;;;22.00;18.52;;;;;;;22.90;82.76;99661.48;1605528;88;20968;-69
2021/07/28 03:56:11;;;;;;;20.45;17.37;;;;;;;22.62;84.75;99651.53;1593497;88;21870;-69
2021/07/28 03:58:38;;;;;;;27.80;16.90;;;;;;;22.57;85.29;99649.79;1612852;88;21020;-67
2021/07/28 04:01:04;;;;;;;31.48;20.10;;;;;;;22.60;85.32;99659.27;1595591;88;21052;-67
2021/07/28 04:03:30;;;;;;;19.65;17.55;;;;;;;22.58;86.35;99665.11;1593281;88;21544;-68
2021/07/28 04:05:57;;;;;;;21.25;16.17;;;;;;;22.58;86.57;99667.05;1578387;88;21139;-68
2021/07/28 04:08:23;;;;;;;23.75;18.45;;;;;;;22.57;86.46;99669.55;1594793;88;21117;-67
2021/07/28 04:10:50;;;;;;;23.42;17.45;;;;;;;22.57;86.73;99655.27;1607866;88;20995;-67
2021/07/28 04:13:16;;;;;;;21.70;17.55;;;;;;;22.62;87.03;99662.50;1604828;89;21572;-66
2021/07/28 04:15:43;;;;;;;22.62;18.42;;;;;;;22.69;86.35;99668.26;1594197;89;21087;-66
2021/07/28 04:18:10;;;;;;;22.48;17.85;;;;;;;22.69;86.73;99664.14;1591956;89;21084;-67
2021/07/28 04:20:36;;;;;;;21.02;17.60;;;;;;;22.58;87.74;99662.37;1590559;90;21882;-67
2021/07/28 04:23:03;;;;;;;23.70;15.13;;;;;;;22.52;87.59;99666.42;1592731;88;21574;-67
2021/07/28 04:25:30;;;;;;;27.48;15.10;;;;;;;22.60;87.29;99656.53;1590512;89;21142;-68
2021/07/28 04:27:56;;;;;;;19.32;15.98;;;;;;;22.72;86.41;99661.36;1588643;90;21061;-67
2021/07/28 04:30:22;;;;;;;17.82;15.30;;;;;;;22.78;86.13;99645.73;1588600;90;21130;-67
2021/07/28 04:32:50;;;;;;;17.52;15.30;;;;;;;22.80;85.79;99620.73;1562990;90;21122;-68
2021/07/28 04:35:16;;;;;;;18.70;15.68;;;;;;;22.79;86.08;99597.17;1588801;90;21050;-67
2021/07/28 04:37:43;;;;;;;22.22;14.18;;;;;;;22.81;86.97;99571.61;1563108;90;21146;-68
2021/07/28 04:40:12;;;;;;;18.98;15.10;;;;;;;22.69;86.17;99574.22;1570933;89;21112;-68
2021/07/28 04:42:38;;;;;;;26.77;17.00;;;;;;;22.63;86.98;99576.95;1594353;89;21196;-68
2021/07/28 04:45:08;;;;;;;22.22;17.67;;;;;;;22.64;88.06;99574.45;1562688;90;21235;-68
2021/07/28 04:47:35;;;;;;;23.75;17.00;;;;;;;22.55;89.71;99575.84;1588833;90;21072;-68
2021/07/28 04:50:01;;;;;;;23.22;17.80;;;;;;;22.34;91.61;99581.87;1562793;90;20997;-68
2021/07/28 04:52:28;;;;;;;22.55;15.13;;;;;;;22.27;92.95;99592.53;1563025;90;21089;-68
2021/07/28 04:54:54;;;;;;;27.77;17.37;;;;;;;22.33;92.55;99606.29;1562829;90;21577;-69
2021/07/28 04:57:20;;;;;;;21.75;15.58;;;;;;;22.38;92.23;99593.77;1560345;90;21079;-68
2021/07/28 04:59:47;;;;;;;18.52;15.20;;;;;;;22.43;91.78;99579.88;1561268;89;21055;-68
2021/07/28 05:02:13;;;;;;;27.00;17.70;;;;;;;22.44;91.58;99578.75;1584421;90;21028;-68
2021/07/28 05:04:40;;;;;;;22.37;16.67;;;;;;;22.45;91.63;99587.19;1598468;89;21570;-68
2021/07/28 05:07:06;;;;;;;31.55;17.98;;;;;;;22.48;91.98;99581.87;1601740;89;21126;-69
2021/07/28 05:09:33;;;;;;;22.15;17.20;;;;;;;22.56;91.60;99587.05;1591944;89;21972;-69
2021/07/28 05:12:00;;;;;;;22.62;15.35;;;;;;;22.65;91.71;99587.80;1557118;92;21048;-68
2021/07/28 05:14:27;;;;;;;23.02;19.17;;;;;;;22.70;91.47;99579.95;1537491;92;21079;-69
2021/07/28 05:16:53;;;;;;;24.72;19.87;;;;;;;22.73;90.44;99573.84;1556704;89;21231;-70
2021/07/28 05:19:19;;;;;;;24.02;19.98;;;;;;;22.76;89.65;99569.86;1597831;89;21043;-67
2021/07/28 05:21:46;;;;;;;26.05;18.45;;;;;;;22.72;90.91;99574.42;1563177;89;21180;-68
2021/07/28 05:24:13;;;;;;;30.45;21.93;;;;;;;22.71;90.71;99580.22;1588953;89;20974;-67
2021/07/28 05:26:39;;;;;;;24.37;21.45;;;;;;;22.74;90.85;99576.23;1588475;90;21072;-68
2021/07/28 05:29:05;;;;;;;26.02;20.68;;;;;;;22.80;91.00;99572.17;1563023;89;21112;-68
2021/07/28 05:31:32;;;;;;;28.50;19.05;;;;;;;22.85;90.50;99572.54;1575028;89;21083;-69
2021/07/28 05:33:58;;;;;;;26.65;18.45;;;;;;;22.90;90.78;99570.41;1600547;88;21087;-69
2021/07/28 05:36:25;;;;;;;24.18;18.85;;;;;;;23.01;91.06;99566.13;1596794;89;21512;-68
2021/07/28 05:38:51;;;;;;;22.27;19.32;;;;;;;23.09;90.92;99569.13;1588685;88;21058;-69
2021/07/28 05:41:18;;;;;;;47.48;41.58;;;;;;;23.03;90.17;99567.15;1588721;90;21090;-67
2021/07/28 05:43:44;;;;;;;23.45;19.07;;;;;;;23.03;90.06;99569.33;1596822;89;21088;-68
2021/07/28 05:46:11;;;;;;;19.95;16.30;;;;;;;23.17;89.82;99570.41;1593408;89;21982;-68
2021/07/28 05:48:37;;;;;;;22.37;17.75;;;;;;;23.30;88.99;99569.92;1588444;90;21032;-67
2021/07/28 05:51:04;;;;;;;17.35;15.20;;;;;;;23.41;87.46;99569.71;1592299;89;21028;-67
2021/07/28 05:53:31;;;;;;;15.68;13.53;;;;;;;23.55;87.17;99558.48;1575084;89;21051;-68
2021/07/28 05:55:57;;;;;;;19.30;15.55;;;;;;;23.60;87.04;99558.24;1589493;89;21059;-69
2021/07/28 05:58:24;;;;;;;21.37;16.52;;;;;;;23.65;86.15;99562.95;1563215;90;21126;-68
2021/07/28 06:00:50;;;;;;;24.87;16.65;;;;;;;23.69;85.50;99557.61;1562951;90;21140;-68
2021/07/28 06:03:18;;;;;;;23.07;16.27;;;;;;;23.69;86.03;99557.61;1588297;89;32475;-68
2021/07/28 06:05:44;;;;;;;19.42;16.02;;;;;;;23.61;85.52;99563.41;1584521;89;21571;-69
2021/07/28 06:08:11;;;;;;;22.80;16.80;;;;;;;23.56;86.32;99554.01;1574528;90;21071;-68
2021/07/28 06:10:37;;;;;;;23.98;16.25;;;;;;;23.56;86.90;99556.75;1580723;90;21533;-68
2021/07/28 06:13:04;;;;;;;16.07;13.98;;;;;;;23.58;87.37;99553.11;1579338;89;21287;-68
2021/07/28 06:15:31;;;;;;;15.60;13.35;;;;;;;23.59;87.64;99553.34;1578211;90;21540;-69
2021/07/28 06:17:57;;;;;;;26.05;14.83;;;;;;;23.65;87.32;99556.66;1558926;90;21080;-68
2021/07/28 06:20:23;;;;;;;23.05;14.75;;;;;;;23.72;87.05;99554.17;1575928;90;21091;-69
2021/07/28 06:22:50;;;;;;;16.62;15.03;;;;;;;23.84;86.43;99558.30;1591497;89;21743;-68
2021/07/28 06:25:16;;;;;;;20.20;15.05;;;;;;;23.90;86.24;99556.94;1580028;88;21100;-68
2021/07/28 06:27:42;;;;;;;22.98;15.65;;;;;;;23.92;85.73;99558.78;1589935;90;21533;-69
2021/07/28 06:30:11;;;;;;;17.35;11.83;;;;;;;23.93;82.42;99552.16;1548300;92;21576;-68
2021/07/28 06:32:37;;;;;;;15.48;13.48;;;;;;;24.04;82.06;99550.55;1537606;92;21076;-68
2021/07/28 06:35:05;;;;;;;19.95;14.70;;;;;;;24.12;81.34;99551.59;1537796;93;21256;-68
2021/07/28 06:37:33;;;;;;;22.55;15.35;;;;;;;24.20;81.06;99553.45;1537815;91;21532;-69
2021/07/28 06:40:00;;;;;;;29.32;19.07;;;;;;;24.25;81.09;99547.16;1542222;93;21088;-67
2021/07/28 06:42:27;;;;;;;22.45;17.57;;;;;;;24.27;81.26;99544.84;1547794;90;21095;-68
2021/07/28 06:44:53;;;;;;;21.70;18.98;;;;;;;24.34;81.49;99556.66;1555750;91;21147;-67
2021/07/28 06:47:20;;;;;;;24.75;21.30;;;;;;;24.36;80.79;99547.50;1578194;90;22289;-68
2021/07/28 06:49:46;;;;;;;28.25;19.87;;;;;;;24.40;80.45;99546.23;1558389;90;21015;-68
2021/07/28 06:52:13;;;;;;;22.05;17.75;;;;;;;24.45;78.08;99556.42;1580924;90;20933;-68
2021/07/28 06:54:39;;;;;;;27.55;21.85;;;;;;;24.54;78.78;99553.55;1580772;90;21611;-68
2021/07/28 06:57:06;;;;;;;22.82;19.07;;;;;;;24.52;79.75;99558.01;1580822;90;21059;-68
2021/07/28 06:59:32;;;;;;;18.70;16.52;;;;;;;24.54;80.16;99550.80;1557158;90;21134;-68
2021/07/28 07:01:59;;;;;;;24.15;16.48;;;;;;;24.57;80.08;99554.22;1580870;90;20991;-68
2021/07/28 07:04:25;;;;;;;25.20;14.87;;;;;;;24.61;79.66;99549.05;1577042;90;21039;-68
2021/07/28 07:06:54;;;;;;;18.02;14.73;;;;;;;24.69;78.86;99559.14;1574750;89;21086;-67
2021/07/28 07:09:21;;;;;;;20.97;17.12;;;;;;;24.79;78.67;99558.44;1551403;91;21130;-68
2021/07/28 07:11:48;;;;;;;19.32;16.35;;;;;;;24.88;78.11;99570.14;1581873;90;21237;-68
2021/07/28 07:14:15;;;;;;;22.07;17.55;;;;;;;24.96;78.22;99568.61;1577969;90;21630;-67
2021/07/28 07:16:43;;;;;;;28.42;16.97;;;;;;;25.01;78.12;99570.32;1577053;91;21004;-68
2021/07/28 07:19:09;;;;;;;25.70;15.63;;;;;;;25.08;76.54;99569.94;1554186;91;21055;-68
2021/07/28 07:21:36;;;;;;;23.85;14.07;;;;;;;25.14;76.37;99576.00;1576561;90;21048;-68
2021/07/28 07:24:02;;;;;;;15.08;13.00;;;;;;;25.21;75.73;99580.92;1578777;89;21052;-67
2021/07/28 07:26:29;;;;;;;16.10;12.35;;;;;;;25.27;75.36;99584.47;1560917;90;20983;-68
2021/07/28 07:28:56;;;;;;;18.45;14.90;;;;;;;25.36;74.70;99589.24;1560945;90;21100;-69
2021/07/28 07:31:22;;;;;;;17.10;11.45;;;;;;;25.45;73.98;99584.38;1579742;90;21044;-69
2021/07/28 07:33:48;;;;;;;15.10;12.82;;;;;;;25.56;73.80;99583.34;1580406;89;21096;-69
2021/07/28 07:36:17;;;;;;;19.75;13.65;;;;;;;25.65;72.70;99592.81;1594257;89;21075;-68
2021/07/28 07:38:43;;;;;;;18.92;12.78;;;;;;;25.71;71.56;99587.28;1571755;89;21521;-68
2021/07/28 07:41:10;;;;;;;24.75;14.03;;;;;;;25.76;71.44;99586.99;1561206;90;21624;-69
2021/07/28 07:43:37;;;;;;;15.20;12.73;;;;;;;25.86;70.68;99595.55;1538541;90;21578;-67
2021/07/28 07:46:03;;;;;;;17.20;12.55;;;;;;;25.95;70.75;99590.66;1583494;90;21092;-67
2021/07/28 07:48:30;;;;;;;25.00;11.97;;;;;;;25.97;70.75;99597.20;1586940;89;21137;-68
2021/07/28 07:50:57;;;;;;;20.80;13.38;;;;;;;25.98;71.09;99594.11;1593991;89;21119;-67
2021/07/28 07:53:23;;;;;;;20.10;14.45;;;;;;;26.02;70.41;99589.48;1594182;88;21084;-67
2021/07/28 07:55:51;;;;;;;14.35;11.40;;;;;;;26.11;69.55;99594.01;1594057;89;21116;-68
2021/07/28 07:58:17;;;;;;;14.87;11.80;;;;;;;26.13;68.99;99590.33;1573034;90;21128;-67
2021/07/28 08:00:44;;;;;;;16.27;11.55;;;;;;;26.13;68.22;99584.24;1580585;90;21205;-69
2021/07/28 08:03:10;;;;;;;18.52;11.43;;;;;;;26.16;68.24;99584.09;1563962;90;21012;-67
2021/07/28 08:05:37;;;;;;;19.32;11.48;;;;;;;26.18;68.39;99580.41;1561221;90;20940;-68
2021/07/28 08:08:05;;;;;;;10.78;8.75;;;;;;;26.27;68.56;99589.33;1583353;90;20964;-67
2021/07/28 08:10:33;;;;;;;12.07;10.82;;;;;;;26.30;68.56;99600.44;1583491;90;20975;-67
2021/07/28 08:12:59;;;;;;;17.95;12.23;;;;;;;26.34;68.05;99595.81;1583265;89;21070;-67
2021/07/28 08:15:27;;;;;;;17.10;13.40;;;;;;;26.38;67.84;99593.12;1580618;90;21543;-68
2021/07/28 08:17:54;;;;;;;18.02;11.68;;;;;;;26.44;67.80;99593.09;1559553;90;21075;-67
2021/07/28 08:20:20;;;;;;;24.23;10.80;;;;;;;26.54;68.06;99602.20;1594695;89;21569;-68
2021/07/28 08:22:46;;;;;;;14.47;11.95;;;;;;;26.65;67.23;99596.94;1591127;89;21028;-68
2021/07/28 08:25:13;;;;;;;21.10;12.53;;;;;;;26.71;66.22;99585.27;1559386;90;21939;-67
2021/07/28 08:27:39;;;;;;;15.15;11.40;;;;;;;26.73;66.35;99586.27;1580790;90;20992;-67
2021/07/28 08:30:08;;;;;;;14.85;11.33;;;;;;;26.80;66.47;99577.59;1581188;90;21565;-68
2021/07/28 08:32:35;;;;;;;17.27;12.53;;;;;;;26.93;66.69;99587.94;1580846;90;21008;-68
2021/07/28 08:35:01;;;;;;;22.67;14.35;;;;;;;27.05;66.29;99584.27;1553596;90;21059;-68
2021/07/28 08:37:28;;;;;;;19.37;11.93;;;;;;;27.08;65.49;99585.70;1574492;91;21051;-69
2021/07/28 08:39:55;;;;;;;20.70;13.15;;;;;;;27.13;65.41;99584.04;1587541;90;21084;-68
2021/07/28 08:42:21;;;;;;;15.38;11.90;;;;;;;27.17;65.30;99569.72;1564947;89;21577;-68
2021/07/28 08:44:48;;;;;;;12.75;11.48;;;;;;;27.23;65.18;99573.00;1558252;90;21067;-68
2021/07/28 08:47:14;;;;;;;16.50;10.60;;;;;;;27.30;65.08;99569.78;1580844;90;21055;-67
2021/07/28 08:49:41;;;;;;;14.87;13.35;;;;;;;27.37;64.73;99568.33;1538424;90;22175;-69
2021/07/28 08:52:10;;;;;;;28.47;13.25;;;;;;;27.46;64.49;99564.76;1577272;90;21142;-69
2021/07/28 08:54:36;;;;;;;19.70;12.73;;;;;;;27.52;64.04;99566.91;1575827;89;21091;-68
2021/07/28 08:57:03;;;;;;;16.35;10.13;;;;;;;27.57;63.96;99566.60;1574823;89;21055;-68
2021/07/28 08:59:32;;;;;;;22.27;12.88;;;;;;;27.67;63.69;99561.83;1574730;89;21583;-68
2021/07/28 09:02:00;;;;;;;14.53;12.03;;;;;;;27.78;63.09;99566.76;1579753;90;21310;-68
2021/07/28 09:04:27;;;;;;;14.38;11.03;;;;;;;27.84;62.44;99563.33;1580605;90;21047;-68
2021/07/28 09:06:54;;;;;;;14.00;11.55;;;;;;;27.92;62.42;99560.89;1580977;89;20964;-68
2021/07/28 09:09:21;;;;;;;20.12;12.58;;;;;;;27.98;62.10;99566.92;1579796;89;20996;-68
2021/07/28 09:11:54;;;;;;;27.65;13.98;;;;;;;28.07;61.48;99563.31;1574707;89;21196;-68
2021/07/28 09:14:24;;;;;;;30.43;11.50;;;;;;;28.13;61.16;99555.77;1576971;91;21618;-68
2021/07/28 09:16:52;;;;;;;18.62;12.53;;;;;;;28.16;60.23;99556.40;1576589;90;21095;-70
2021/07/28 09:19:41;;;;;;;18.25;13.00;;;;;;;28.20;60.28;99562.59;1552134;91;21540;-67
2021/07/28 09:22:08;;;;;;;18.70;11.43;;;;;;;28.23;60.29;99556.31;1551096;91;21074;-68
2021/07/28 09:24:35;;;;;;;18.73;11.88;;;;;;;28.30;60.11;99555.05;1574692;90;21115;-69
2021/07/28 09:27:02;;;;;;;13.28;9.88;;;;;;;28.36;59.47;99559.87;1583167;90;21273;-68
2021/07/28 09:29:28;;;;;;;19.42;11.33;;;;;;;28.42;59.16;99560.36;1571706;89;21118;-67
2021/07/28 09:32:04;;;;;;;21.20;12.23;;;;;;;28.45;59.38;99554.08;1578982;89;21102;-68
2021/07/28 09:34:35;;;;;;;21.87;14.38;;;;;;;28.50;59.49;99553.75;1578178;89;21109;-69
2021/07/28 09:37:19;;;;;;;26.70;12.43;;;;;;;28.55;58.98;99552.05;1549469;91;21089;-69
2021/07/28 09:39:41;;;;;;;25.08;13.70;;;;;;;28.60;58.71;99547.58;1558659;91;21445;-67
2021/07/28 09:42:17;;;;;;;19.23;12.13;;;;;;;28.67;58.24;99533.05;1581089;89;20968;-68
2021/07/28 09:44:45;;;;;;;21.97;13.45;;;;;;;28.78;58.27;99531.23;1556392;91;21077;-67
2021/07/28 09:47:21;;;;;;;17.23;12.53;;;;;;;28.89;57.93;99529.42;1577065;89;21116;-66
2021/07/28 09:50:04;;;;;;;14.65;11.03;;;;;;;28.98;57.33;99532.69;1576966;91;21321;-67
2021/07/28 09:52:34;;;;;;;19.55;12.82;;;;;;;29.06;57.13;99525.28;1577029;91;22239;-68
2021/07/28 09:55:31;;;;;;;26.65;11.40;;;;;;;29.09;56.96;99514.83;1576885;91;21058;-68
2021/07/28 09:57:59;;;;;;;21.73;11.83;;;;;;;29.14;56.81;99532.50;1581292;90;21520;-68
2021/07/28 10:00:30;;;;;;;18.00;11.38;;;;;;;29.21;56.07;99522.90;1579043;90;21118;-68
2021/07/28 10:03:04;;;;;;;15.30;9.78;;;;;;;29.26;55.98;99519.17;1558534;90;21168;-70
2021/07/28 10:05:32;;;;;;;12.50;7.65;;;;;;;29.35;53.95;99525.24;1544593;92;21137;-68
2021/07/28 10:08:00;;;;;;;10.32;8.23;;;;;;;29.45;50.95;99514.86;1564504;90;21344;-73
2021/07/28 10:10:27;;;;;;;14.93;8.45;;;;;;;29.54;50.90;99534.56;1577174;90;21120;-73
2021/07/28 10:12:53;;;;;;;17.17;10.75;;;;;;;29.62;50.77;99520.39;1585923;90;22032;-73
2021/07/28 10:15:23;;;;;;;15.50;10.98;;;;;;;29.71;51.30;99527.00;1580980;90;21072;-72
2021/07/28 10:17:51;;;;;;;18.65;10.18;;;;;;;29.74;50.89;99518.70;1580673;90;21076;-73
2021/07/28 10:20:17;;;;;;;15.68;9.95;;;;;;;29.79;50.96;99512.01;1576797;90;21084;-76
2021/07/28 10:22:44;;;;;;;18.12;9.08;;;;;;;29.91;50.94;99508.19;1576916;91;21086;-71
2021/07/28 10:25:17;;;;;;;13.72;9.75;;;;;;;30.04;50.50;99506.12;1583510;90;21074;-77
2021/07/28 10:27:51;;;;;;;12.13;8.95;;;;;;;30.19;49.64;99507.02;1580415;90;21012;-76
2021/07/28 10:30:22;;;;;;;12.65;8.60;;;;;;;30.33;48.63;99520.41;1556839;90;21473;-77
2021/07/28 10:32:48;;;;;;;9.38;8.43;;;;;;;30.42;47.46;99515.89;1556401;91;21463;-77
2021/07/28 10:35:27;;;;;;;13.78;9.43;;;;;;;30.43;47.48;99511.95;1560687;91;21568;-79
2021/07/28 10:37:57;;;;;;;13.72;9.35;;;;;;;30.46;47.63;99507.03;1537334;91;21075;-77
2021/07/28 10:40:31;;;;;;;18.07;11.63;;;;;;;30.53;47.32;99513.22;1556227;92;20984;-75
2021/07/28 10:43:01;;;;;;;17.77;10.38;;;;;;;30.55;47.49;99506.70;1577434;90;21063;-75
2021/07/28 10:45:43;;;;;;;10.78;9.33;;;;;;;30.57;47.75;99505.70;1580882;90;20926;-75
2021/07/28 10:48:10;;;;;;;11.08;8.90;;;;;;;30.66;47.40;99503.38;1520010;92;21098;-76
2021/07/28 10:50:41;;;;;;;16.02;10.32;;;;;;;30.70;47.24;99513.90;1517702;91;20919;-78
2021/07/28 10:53:07;;;;;;;18.87;10.45;;;;;;;30.63;47.23;99503.57;1559631;91;20935;-78
2021/07/28 10:55:37;;;;;;;18.10;10.43;;;;;;;30.60;47.27;99507.11;1569456;91;21179;-76
2021/07/28 10:58:12;;;;;;;19.07;11.28;;;;;;;30.67;47.69;99506.36;1561286;92;20966;-84
2021/07/28 11:00:52;;;;;;;14.80;11.97;;;;;;;30.81;47.45;99500.88;1554545;92;21096;-76
2021/07/28 11:03:20;;;;;;;15.63;10.15;;;;;;;30.91;47.35;99492.38;1562157;90;20987;-73
2021/07/28 11:05:52;;;;;;;15.30;11.53;;;;;;;31.01;46.78;99498.57;1543481;92;20889;-76
2021/07/28 11:08:20;;;;;;;12.63;9.93;;;;;;;31.07;46.90;99485.34;1551114;91;21125;-76
2021/07/28 11:10:57;;;;;;;16.20;9.40;;;;;;;31.17;46.30;99485.94;1583833;90;21029;-76
2021/07/28 11:13:28;;;;;;;11.75;9.90;;;;;;;31.19;45.30;99492.50;1563334;91;20979;-75
2021/07/28 11:16:00;;;;;;;9.55;8.13;;;;;;;31.28;45.27;99478.23;1541532;91;20952;-75
2021/07/28 11:18:46;;;;;;;15.13;10.38;;;;;;;31.36;45.32;99480.65;1557801;91;20939;-77
2021/07/28 11:21:20;;;;;;;13.65;9.45;;;;;;;31.45;45.26;99472.72;1578615;91;21596;-80
2021/07/28 11:24:02;;;;;;;12.82;10.78;;;;;;;31.46;45.50;99470.73;1570054;91;20998;-86